createdAt,value
2023-03-13T00:01:15.775Z,517.00
2023-03-13T00:05:15.916Z,514.00
2023-03-13T00:09:16.070Z,505.00
2023-03-13T00:13:16.240Z,512.00
2023-03-13T00:17:16.391Z,501.00
2023-03-13T00:21:16.615Z,514.00
2023-03-13T00:25:16.842Z,508.00
2023-03-13T00:29:16.975Z,507.00
2023-03-13T00:33:17.093Z,506.00
2023-03-13T00:37:17.289Z,507.00
2023-03-13T00:41:17.377Z,509.00
2023-03-13T00:45:17.526Z,511.00
2023-03-13T00:49:17.729Z,507.00
2023-03-13T00:53:17.870Z,506.00
2023-03-13T00:57:18.044Z,511.00
2023-03-13T01:01:18.215Z,514.00
2023-03-13T01:05:18.371Z,511.00
2023-03-13T01:09:18.642Z,515.00
2023-03-13T01:13:19.229Z,508.00
2023-03-13T01:17:18.902Z,508.00
2023-03-13T01:21:19.122Z,505.00
2023-03-13T01:25:19.310Z,505.00
2023-03-13T01:29:19.373Z,516.00
2023-03-13T01:33:19.569Z,509.00
2023-03-13T01:37:19.814Z,501.00
2023-03-13T01:41:19.915Z,506.00
2023-03-13T01:45:20.099Z,510.00
2023-03-13T01:49:20.270Z,511.00
2023-03-13T01:53:20.461Z,509.00
2023-03-13T01:57:20.573Z,508.00
2023-03-13T02:01:20.758Z,505.00
2023-03-13T02:05:21.005Z,508.00
2023-03-13T02:09:21.106Z,511.00
2023-03-13T02:13:21.381Z,504.00
2023-03-13T02:17:21.385Z,510.00
2023-03-13T02:21:21.559Z,510.00
2023-03-13T02:25:21.695Z,501.00
2023-03-13T02:29:21.819Z,512.00
2023-03-13T02:33:22.056Z,506.00
2023-03-13T02:37:22.196Z,509.00
2023-03-13T02:41:22.313Z,510.00
2023-03-13T02:45:22.530Z,507.00
2023-03-13T02:49:22.641Z,509.00
2023-03-13T02:53:22.817Z,513.00
2023-03-13T02:57:22.977Z,504.00
2023-03-13T03:01:23.151Z,515.00
2023-03-13T03:05:23.764Z,507.00
2023-03-13T03:09:23.433Z,511.00
2023-03-13T03:13:23.625Z,509.00
2023-03-13T03:17:24.266Z,503.00
2023-03-13T03:21:23.946Z,509.00
2023-03-13T03:25:24.103Z,507.00
2023-03-13T03:29:24.273Z,509.00
2023-03-13T03:33:24.418Z,509.00
2023-03-13T03:37:24.551Z,511.00
2023-03-13T03:41:24.714Z,508.00
2023-03-13T03:45:24.857Z,514.00
2023-03-13T03:49:24.993Z,508.00
2023-03-13T03:53:25.200Z,512.00
2023-03-13T03:57:25.282Z,504.00
2023-03-13T04:01:25.455Z,504.00
2023-03-13T04:05:25.622Z,510.00
2023-03-13T04:09:25.788Z,508.00
2023-03-13T04:13:25.972Z,507.00
2023-03-13T04:17:26.282Z,503.00
2023-03-13T04:21:26.310Z,507.00
2023-03-13T04:25:26.444Z,505.00
2023-03-13T04:29:26.648Z,502.00
2023-03-13T04:33:26.808Z,504.00
2023-03-13T04:37:26.947Z,509.00
2023-03-13T04:41:27.141Z,506.00
2023-03-13T04:45:27.258Z,513.00
2023-03-13T04:49:27.436Z,509.00
2023-03-13T04:53:27.562Z,506.00
2023-03-13T04:57:27.715Z,508.00
2023-03-13T05:01:27.866Z,508.00
2023-03-13T05:05:28.132Z,518.00
2023-03-13T05:09:28.184Z,508.00
2023-03-13T05:13:28.484Z,507.00
2023-03-13T05:17:28.530Z,503.00
2023-03-13T05:21:28.850Z,511.00
2023-03-13T05:25:28.900Z,504.00
2023-03-13T05:29:29.066Z,503.00
2023-03-13T05:33:29.864Z,501.00
2023-03-13T05:37:29.396Z,500.00
2023-03-13T05:41:29.549Z,503.00
2023-03-13T05:45:29.732Z,505.00
2023-03-13T05:49:29.903Z,515.00
2023-03-13T05:53:30.114Z,521.00
2023-03-13T05:57:30.240Z,523.00
2023-03-13T06:01:30.499Z,517.00
2023-03-13T06:05:30.637Z,513.00
2023-03-13T06:09:30.796Z,516.00
2023-03-13T06:13:31.030Z,519.00
2023-03-13T06:17:31.112Z,518.00
2023-03-13T06:21:31.289Z,519.00
2023-03-13T06:25:31.487Z,525.00
2023-03-13T06:29:31.655Z,525.00
2023-03-13T06:33:32.433Z,515.00
2023-03-13T06:37:32.327Z,499.00
2023-03-13T06:41:32.230Z,503.00
2023-03-13T06:45:32.338Z,505.00
2023-03-13T06:49:32.477Z,504.00
2023-03-13T06:53:32.593Z,503.00
2023-03-13T06:57:32.934Z,509.00
2023-03-13T07:01:32.956Z,513.00
2023-03-13T07:05:33.149Z,547.00
2023-03-13T07:09:33.295Z,535.00
2023-03-13T07:13:33.412Z,523.00
2023-03-13T07:17:33.742Z,523.00
2023-03-13T07:21:33.781Z,514.00
2023-03-13T07:25:33.856Z,510.00
2023-03-13T07:29:33.987Z,504.00
2023-03-13T07:33:34.107Z,500.00
2023-03-13T07:37:34.231Z,502.00
2023-03-13T07:41:35.188Z,505.00
2023-03-13T07:45:34.985Z,512.00
2023-03-13T07:49:36.631Z,527.00
2023-03-13T07:53:34.930Z,524.00
2023-03-13T07:57:35.388Z,526.00
2023-03-13T08:01:35.397Z,531.00
2023-03-13T08:05:35.430Z,531.00
2023-03-13T08:09:35.412Z,537.00
2023-03-13T08:13:35.505Z,532.00
2023-03-13T08:17:35.922Z,539.00
2023-03-13T08:21:35.975Z,539.00
2023-03-13T08:25:36.749Z,543.00
2023-03-13T08:29:35.834Z,546.00
2023-03-13T08:33:36.476Z,552.00
2023-03-13T08:37:36.146Z,546.00
2023-03-13T08:41:36.479Z,546.00
2023-03-13T08:45:36.327Z,547.00
2023-03-13T08:49:36.995Z,554.00
2023-03-13T08:53:36.593Z,553.00
2023-03-13T08:57:36.890Z,552.00
2023-03-13T09:01:36.775Z,547.00
2023-03-13T09:05:54.577Z,547.00
2023-03-13T09:09:37.800Z,545.00
2023-03-13T09:13:36.815Z,548.00
2023-03-13T09:17:36.940Z,537.00
2023-03-13T09:21:36.711Z,541.00
2023-03-13T09:25:38.480Z,541.00
2023-03-13T09:29:36.942Z,541.00
2023-03-13T09:33:36.963Z,541.00
2023-03-13T09:37:37.050Z,546.00
2023-03-13T09:41:37.214Z,523.00
2023-03-13T09:45:37.255Z,532.00
2023-03-13T09:49:37.384Z,528.00
2023-03-13T09:53:37.457Z,528.00
2023-03-13T09:57:37.466Z,530.00
2023-03-13T10:01:37.579Z,528.00
2023-03-13T10:05:37.626Z,525.00
2023-03-13T10:09:37.827Z,526.00
2023-03-13T10:13:37.896Z,520.00
2023-03-13T10:17:37.893Z,534.00
2023-03-13T10:21:38.016Z,537.00
2023-03-13T10:25:38.036Z,541.00
2023-03-13T10:29:38.895Z,551.00
2023-03-13T10:33:38.493Z,564.00
2023-03-13T10:37:38.464Z,567.00
2023-03-13T10:41:38.612Z,584.00
2023-03-13T10:45:38.569Z,586.00
2023-03-13T10:49:38.794Z,593.00
2023-03-13T10:53:38.928Z,591.00
2023-03-13T10:57:39.210Z,573.00
2023-03-13T11:01:39.338Z,574.00
2023-03-13T11:05:39.573Z,564.00
2023-03-13T11:09:39.886Z,555.00
2023-03-13T11:13:39.711Z,550.00
2023-03-13T11:17:39.938Z,550.00
2023-03-13T11:21:40.063Z,547.00
2023-03-13T11:25:40.268Z,539.00
2023-03-13T11:29:40.877Z,540.00
2023-03-13T11:33:40.451Z,535.00
2023-03-13T11:37:40.632Z,542.00
2023-03-13T11:41:40.842Z,543.00
2023-03-13T11:45:41.044Z,544.00
2023-03-13T11:49:41.255Z,539.00
2023-03-13T11:53:41.299Z,535.00
2023-03-13T11:57:41.434Z,540.00
2023-03-13T12:01:41.568Z,526.00
2023-03-13T12:05:41.752Z,526.00
2023-03-13T12:09:41.956Z,526.00
2023-03-13T12:13:41.944Z,521.00
2023-03-13T12:17:42.489Z,540.00
2023-03-13T12:21:42.227Z,534.00
2023-03-13T12:25:42.530Z,522.00
2023-03-13T12:29:42.483Z,539.00
2023-03-13T12:33:42.968Z,531.00
2023-03-13T12:37:42.618Z,555.00
2023-03-13T12:41:42.763Z,567.00
2023-03-13T12:45:42.991Z,572.00
2023-03-13T12:49:42.971Z,573.00
2023-03-13T12:53:43.071Z,572.00
2023-03-13T12:57:43.226Z,560.00
2023-03-13T13:01:43.358Z,587.00
2023-03-13T13:05:43.393Z,581.00
2023-03-13T13:09:43.448Z,551.00
2023-03-13T13:13:43.591Z,561.00
2023-03-13T13:17:43.734Z,580.00
2023-03-13T13:21:43.909Z,564.00
2023-03-13T13:25:44.039Z,626.00
2023-03-13T13:29:44.156Z,645.00
2023-03-13T13:33:44.237Z,636.00
2023-03-13T13:37:44.364Z,648.00
2023-03-13T13:41:44.545Z,631.00
2023-03-13T13:45:44.616Z,606.00
2023-03-13T13:49:44.751Z,599.00
2023-03-13T13:53:44.911Z,575.00
2023-03-13T13:57:45.073Z,573.00
2023-03-13T14:01:45.199Z,571.00
2023-03-13T14:05:45.274Z,561.00
2023-03-13T14:09:45.458Z,533.00
2023-03-13T14:13:45.562Z,547.00
2023-03-13T14:17:45.724Z,547.00
2023-03-13T14:21:45.804Z,565.00
2023-03-13T14:25:45.920Z,573.00
2023-03-13T14:29:46.047Z,548.00
2023-03-13T14:33:46.144Z,528.00
2023-03-13T14:37:46.289Z,527.00
2023-03-13T14:41:46.324Z,546.00
2023-03-13T14:45:46.418Z,565.00
2023-03-13T14:49:46.621Z,600.00
2023-03-13T14:53:46.662Z,580.00
2023-03-13T14:57:46.794Z,581.00
2023-03-13T15:01:46.891Z,578.00
2023-03-13T15:05:46.996Z,572.00
2023-03-13T15:09:47.130Z,570.00
2023-03-13T15:13:47.218Z,563.00
2023-03-13T15:17:47.395Z,546.00
2023-03-13T15:21:47.462Z,559.00
2023-03-13T15:25:47.635Z,555.00
2023-03-13T15:29:48.019Z,540.00
2023-03-13T15:33:47.864Z,547.00
2023-03-13T15:37:47.993Z,547.00
2023-03-13T15:41:48.054Z,537.00
2023-03-13T15:45:48.230Z,531.00
2023-03-13T15:49:48.270Z,532.00
2023-03-13T15:53:48.454Z,527.00
2023-03-13T15:57:48.521Z,537.00
2023-03-13T16:01:48.601Z,531.00
2023-03-13T16:05:48.696Z,527.00
2023-03-13T16:09:48.823Z,534.00
2023-03-13T16:13:48.927Z,527.00
2023-03-13T16:17:49.021Z,526.00
2023-03-13T16:21:49.156Z,528.00
2023-03-13T16:25:49.287Z,526.00
2023-03-13T16:29:49.323Z,525.00
2023-03-13T16:33:52.281Z,537.00
2023-03-13T16:37:49.394Z,541.00
2023-03-13T16:41:49.339Z,540.00
2023-03-13T16:45:49.346Z,543.00
2023-03-13T16:49:49.313Z,540.00
2023-03-13T16:53:49.224Z,537.00
2023-03-13T16:57:49.199Z,541.00
2023-03-13T17:01:49.600Z,535.00
2023-03-13T17:05:49.152Z,537.00
2023-03-13T17:09:49.079Z,527.00
2023-03-13T17:13:49.062Z,515.00
2023-03-13T17:17:49.085Z,517.00
2023-03-13T17:21:49.155Z,524.00
2023-03-13T17:25:49.246Z,512.00
2023-03-13T17:29:49.640Z,524.00
2023-03-13T17:33:49.359Z,521.00
2023-03-13T17:37:49.471Z,525.00
2023-03-13T17:41:49.548Z,530.00
2023-03-13T17:45:49.648Z,540.00
2023-03-13T17:49:49.810Z,535.00
2023-03-13T17:53:49.907Z,543.00
2023-03-13T17:57:50.030Z,537.00
2023-03-13T18:01:50.586Z,534.00
2023-03-13T18:05:50.246Z,519.00
2023-03-13T18:09:50.301Z,503.00
2023-03-13T18:13:50.399Z,503.00
2023-03-13T18:17:50.475Z,502.00
2023-03-13T18:21:50.563Z,501.00
2023-03-13T18:25:50.650Z,500.00
2023-03-13T18:29:50.817Z,501.00
2023-03-13T18:33:50.803Z,538.00
2023-03-13T18:37:51.151Z,580.00
2023-03-13T18:41:50.979Z,534.00
2023-03-13T18:45:51.055Z,500.00
2023-03-13T18:49:51.137Z,507.00
2023-03-13T18:53:51.177Z,503.00
2023-03-13T18:57:51.181Z,513.00
2023-03-13T19:01:51.466Z,503.00
2023-03-13T19:05:51.364Z,502.00
2023-03-13T19:09:51.527Z,511.00
2023-03-13T19:13:51.626Z,503.00
2023-03-13T19:17:51.667Z,523.00
2023-03-13T19:21:51.866Z,538.00
2023-03-13T19:25:51.873Z,500.00
2023-03-13T19:29:51.988Z,502.00
2023-03-13T19:33:52.038Z,502.00
2023-03-13T19:37:52.211Z,502.00
2023-03-13T19:41:52.281Z,517.00
2023-03-13T19:45:52.406Z,507.00
2023-03-13T19:49:52.495Z,500.00
2023-03-13T19:53:52.604Z,509.00
2023-03-13T19:57:52.802Z,508.00
2023-03-13T20:01:52.882Z,512.00
2023-03-13T20:05:52.877Z,562.00
2023-03-13T20:09:53.001Z,580.00
2023-03-13T20:13:53.059Z,548.00
2023-03-13T20:17:53.188Z,549.00
2023-03-13T20:21:53.360Z,523.00
2023-03-13T20:25:53.373Z,517.00
2023-03-13T20:29:53.425Z,522.00
2023-03-13T20:33:53.413Z,526.00
2023-03-13T20:37:53.529Z,527.00
2023-03-13T20:41:54.151Z,520.00
2023-03-13T20:45:53.677Z,522.00
2023-03-13T20:49:53.778Z,527.00
2023-03-13T20:53:53.825Z,515.00
2023-03-13T20:57:53.907Z,524.00
2023-03-13T21:01:53.993Z,536.00
2023-03-13T21:05:54.013Z,542.00
2023-03-13T21:09:54.114Z,559.00
2023-03-13T21:13:54.151Z,560.00
2023-03-13T21:17:54.688Z,582.00
2023-03-13T21:21:54.281Z,582.00
2023-03-13T21:25:54.331Z,600.00
2023-03-13T21:29:54.430Z,614.00
2023-03-13T21:33:54.484Z,626.00
2023-03-13T21:37:54.635Z,636.00
2023-03-13T21:41:54.727Z,648.00
2023-03-13T21:45:54.787Z,646.00
2023-03-13T21:49:54.885Z,659.00
2023-03-13T21:53:55.021Z,659.00
2023-03-13T21:57:55.045Z,656.00
2023-03-13T22:01:55.174Z,661.00
2023-03-13T22:05:55.308Z,655.00
2023-03-13T22:09:55.372Z,636.00
2023-03-13T22:13:55.668Z,628.00
2023-03-13T22:17:55.532Z,612.00
2023-03-13T22:21:55.655Z,599.00
2023-03-13T22:25:55.778Z,592.00
2023-03-13T22:29:55.872Z,587.00
2023-03-13T22:33:56.003Z,590.00
2023-03-13T22:37:56.072Z,598.00
2023-03-13T22:41:56.186Z,601.00
2023-03-13T22:45:56.329Z,616.00
2023-03-13T22:49:56.459Z,617.00
2023-03-13T22:53:56.594Z,625.00
2023-03-13T22:57:56.717Z,629.00
2023-03-13T23:01:56.853Z,635.00
2023-03-13T23:05:56.990Z,636.00
2023-03-13T23:09:57.069Z,643.00
2023-03-13T23:13:57.220Z,639.00
2023-03-13T23:17:57.351Z,643.00
2023-03-13T23:21:57.386Z,651.00
2023-03-13T23:25:57.584Z,650.00
2023-03-13T23:29:57.712Z,651.00
2023-03-13T23:33:57.861Z,650.00
2023-03-13T23:37:58.217Z,650.00
2023-03-13T23:41:58.224Z,651.00
2023-03-13T23:45:58.132Z,655.00
2023-03-13T23:49:58.254Z,658.00
2023-03-13T23:53:58.411Z,653.00
2023-03-13T23:57:58.608Z,653.00
